sensor_id;sensor_type;location;lat;lon;timestamp;pressure;altitude;pressure_sealevel;temperature;humidity
71105;BME280;58760;48.716;8.962;2023-01-31T00:00:50;97370.88;;;1.61;88.25
71105;BME280;58760;48.716;8.962;2023-01-31T00:03:15;97370.44;;;1.54;88.15
71105;BME280;58760;48.716;8.962;2023-01-31T00:05:41;97369.25;;;1.73;87.33
71105;BME280;58760;48.716;8.962;2023-01-31T00:08:06;97385.00;;;1.58;88.02
71105;BME280;58760;48.716;8.962;2023-01-31T00:10:31;97373.91;;;1.55;87.80
71105;BME280;58760;48.716;8.962;2023-01-31T00:12:57;97374.75;;;1.55;87.93
71105;BME280;58760;48.716;8.962;2023-01-31T00:15:23;97370.34;;;1.56;88.23
71105;BME280;58760;48.716;8.962;2023-01-31T00:17:48;97378.00;;;1.59;88.00
71105;BME280;58760;48.716;8.962;2023-01-31T00:20:14;97364.66;;;1.76;87.93
71105;BME280;58760;48.716;8.962;2023-01-31T00:22:39;97371.22;;;1.69;87.93
71105;BME280;58760;48.716;8.962;2023-01-31T00:25:05;97365.06;;;1.70;87.71
71105;BME280;58760;48.716;8.962;2023-01-31T00:27:31;97364.97;;;1.72;87.50
71105;BME280;58760;48.716;8.962;2023-01-31T00:29:56;97362.97;;;1.63;87.82
71105;BME280;58760;48.716;8.962;2023-01-31T00:32:22;97367.75;;;1.56;87.75
71105;BME280;58760;48.716;8.962;2023-01-31T00:34:47;97361.06;;;1.65;87.67
71105;BME280;58760;48.716;8.962;2023-01-31T00:37:12;97355.97;;;1.49;87.79
71105;BME280;58760;48.716;8.962;2023-01-31T00:39:38;97358.94;;;1.57;87.88
71105;BME280;58760;48.716;8.962;2023-01-31T00:42:03;97358.22;;;1.41;88.21
71105;BME280;58760;48.716;8.962;2023-01-31T00:44:29;97365.00;;;1.57;88.61
71105;BME280;58760;48.716;8.962;2023-01-31T00:46:54;97359.38;;;1.64;87.84
71105;BME280;58760;48.716;8.962;2023-01-31T00:49:19;97368.75;;;1.53;87.57
71105;BME280;58760;48.716;8.962;2023-01-31T00:51:45;97362.66;;;1.67;87.18
71105;BME280;58760;48.716;8.962;2023-01-31T00:54:10;97357.66;;;1.50;87.63
71105;BME280;58760;48.716;8.962;2023-01-31T00:56:35;97349.34;;;1.43;87.09
71105;BME280;58760;48.716;8.962;2023-01-31T00:59:03;97338.25;;;1.40;87.35
71105;BME280;58760;48.716;8.962;2023-01-31T01:01:33;97337.91;;;1.32;87.94
71105;BME280;58760;48.716;8.962;2023-01-31T01:03:59;97339.94;;;1.41;87.62
71105;BME280;58760;48.716;8.962;2023-01-31T01:06:25;97333.97;;;1.39;87.42
71105;BME280;58760;48.716;8.962;2023-01-31T01:08:51;97344.44;;;1.11;87.97
71105;BME280;58760;48.716;8.962;2023-01-31T01:11:23;97345.94;;;1.15;88.32
71105;BME280;58760;48.716;8.962;2023-01-31T01:13:49;97336.34;;;1.15;87.66
71105;BME280;58760;48.716;8.962;2023-01-31T01:16:19;97339.69;;;1.17;88.25
71105;BME280;58760;48.716;8.962;2023-01-31T01:18:45;97333.56;;;1.04;87.81
71105;BME280;58760;48.716;8.962;2023-01-31T01:21:18;97345.03;;;1.01;88.60
71105;BME280;58760;48.716;8.962;2023-01-31T01:23:44;97339.13;;;1.12;88.80
71105;BME280;58760;48.716;8.962;2023-01-31T01:26:13;97340.75;;;1.00;88.53
71105;BME280;58760;48.716;8.962;2023-01-31T01:28:39;97343.72;;;1.09;88.47
71105;BME280;58760;48.716;8.962;2023-01-31T01:31:06;97341.47;;;1.17;88.40
71105;BME280;58760;48.716;8.962;2023-01-31T01:33:31;97334.44;;;1.17;88.29
71105;BME280;58760;48.716;8.962;2023-01-31T01:36:01;97335.75;;;1.24;88.32
71105;BME280;58760;48.716;8.962;2023-01-31T01:38:26;97328.09;;;1.35;88.10
71105;BME280;58760;48.716;8.962;2023-01-31T01:40:52;97316.66;;;1.50;87.49
71105;BME280;58760;48.716;8.962;2023-01-31T01:43:17;97328.44;;;1.43;87.36
71105;BME280;58760;48.716;8.962;2023-01-31T01:45:43;97328.94;;;1.36;87.81
71105;BME280;58760;48.716;8.962;2023-01-31T01:48:14;97338.09;;;1.29;87.44
71105;BME280;58760;48.716;8.962;2023-01-31T01:50:44;97338.63;;;1.34;87.30
71105;BME280;58760;48.716;8.962;2023-01-31T01:53:15;97342.16;;;1.47;87.33
71105;BME280;58760;48.716;8.962;2023-01-31T01:55:52;97343.38;;;1.41;86.90
71105;BME280;58760;48.716;8.962;2023-01-31T01:58:32;97341.75;;;1.26;87.37
71105;BME280;58760;48.716;8.962;2023-01-31T02:00:58;97341.25;;;1.34;87.52
71105;BME280;58760;48.716;8.962;2023-01-31T02:03:24;97339.59;;;1.33;87.18
71105;BME280;58760;48.716;8.962;2023-01-31T02:05:55;97333.38;;;1.07;87.26
71105;BME280;58760;48.716;8.962;2023-01-31T02:08:24;97337.28;;;1.00;88.46
71105;BME280;58760;48.716;8.962;2023-01-31T02:13:19;97335.16;;;0.92;89.01
71105;BME280;58760;48.716;8.962;2023-01-31T02:15:45;97331.97;;;0.87;89.55
71105;BME280;58760;48.716;8.962;2023-01-31T02:18:11;97335.72;;;0.97;89.39
71105;BME280;58760;48.716;8.962;2023-01-31T02:34:37;97366.53;;;0.34;91.78
71105;BME280;58760;48.716;8.962;2023-01-31T02:37:26;97370.59;;;0.24;91.68
71105;BME280;58760;48.716;8.962;2023-01-31T02:45:19;97380.06;;;0.11;93.44
71105;BME280;58760;48.716;8.962;2023-01-31T02:47:58;97377.69;;;0.07;93.55
71105;BME280;58760;48.716;8.962;2023-01-31T02:50:40;97380.31;;;0.07;93.67
71105;BME280;58760;48.716;8.962;2023-01-31T02:55:48;97379.84;;;0.00;94.34
71105;BME280;58760;48.716;8.962;2023-01-31T02:58:36;97384.56;;;-0.07;94.06
71105;BME280;58760;48.716;8.962;2023-01-31T03:01:03;97389.88;;;-0.08;94.45
71105;BME280;58760;48.716;8.962;2023-01-31T03:03:31;97387.78;;;-0.17;94.31
71105;BME280;58760;48.716;8.962;2023-01-31T03:09:18;97383.19;;;0.02;95.21
71105;BME280;58760;48.716;8.962;2023-01-31T03:14:30;97384.88;;;0.33;94.22
71105;BME280;58760;48.716;8.962;2023-01-31T03:17:01;97379.56;;;0.34;93.87
71105;BME280;58760;48.716;8.962;2023-01-31T03:23:23;97391.41;;;0.40;93.20
71105;BME280;58760;48.716;8.962;2023-01-31T03:25:51;97378.28;;;0.56;93.00
71105;BME280;58760;48.716;8.962;2023-01-31T03:28:20;97374.94;;;0.53;92.47
71105;BME280;58760;48.716;8.962;2023-01-31T03:31:09;97385.22;;;0.57;92.04
71105;BME280;58760;48.716;8.962;2023-01-31T03:33:40;97379.34;;;0.67;91.90
71105;BME280;58760;48.716;8.962;2023-01-31T03:38:48;97392.03;;;0.73;90.17
71105;BME280;58760;48.716;8.962;2023-01-31T03:41:31;97382.16;;;0.78;90.25
71105;BME280;58760;48.716;8.962;2023-01-31T03:44:04;97382.06;;;0.80;90.05
71105;BME280;58760;48.716;8.962;2023-01-31T03:46:34;97383.09;;;0.77;89.32
71105;BME280;58760;48.716;8.962;2023-01-31T03:49:05;97385.78;;;0.76;89.81
71105;BME280;58760;48.716;8.962;2023-01-31T03:51:36;97396.53;;;0.71;89.82
71105;BME280;58760;48.716;8.962;2023-01-31T03:54:10;97390.53;;;0.69;89.96
71105;BME280;58760;48.716;8.962;2023-01-31T03:56:57;97388.66;;;0.57;90.00
71105;BME280;58760;48.716;8.962;2023-01-31T03:59:27;97390.00;;;0.64;90.13
71105;BME280;58760;48.716;8.962;2023-01-31T04:01:56;97392.59;;;0.64;90.09
71105;BME280;58760;48.716;8.962;2023-01-31T04:04:27;97392.84;;;0.60;90.11
71105;BME280;58760;48.716;8.962;2023-01-31T04:06:54;97399.16;;;0.71;90.19
71105;BME280;58760;48.716;8.962;2023-01-31T04:09:20;97397.81;;;0.78;89.85
71105;BME280;58760;48.716;8.962;2023-01-31T04:11:48;97404.88;;;0.62;89.50
71105;BME280;58760;48.716;8.962;2023-01-31T04:14:14;97407.41;;;0.64;89.75
71105;BME280;58760;48.716;8.962;2023-01-31T04:16:40;97406.88;;;0.73;89.39
71105;BME280;58760;48.716;8.962;2023-01-31T04:19:05;97401.53;;;0.60;89.23
71105;BME280;58760;48.716;8.962;2023-01-31T04:21:31;97411.63;;;0.66;89.45
71105;BME280;58760;48.716;8.962;2023-01-31T04:23:56;97407.31;;;0.65;89.69
71105;BME280;58760;48.716;8.962;2023-01-31T04:26:21;97406.28;;;0.53;89.55
71105;BME280;58760;48.716;8.962;2023-01-31T04:28:47;97398.44;;;0.53;89.01
71105;BME280;58760;48.716;8.962;2023-01-31T04:31:13;97400.03;;;0.56;89.66
71105;BME280;58760;48.716;8.962;2023-01-31T04:33:38;97406.75;;;0.60;89.41
71105;BME280;58760;48.716;8.962;2023-01-31T04:36:04;97402.63;;;0.42;89.07
71105;BME280;58760;48.716;8.962;2023-01-31T04:38:29;97408.03;;;0.39;90.25
71105;BME280;58760;48.716;8.962;2023-01-31T04:40:54;97410.66;;;0.23;90.51
71105;BME280;58760;48.716;8.962;2023-01-31T04:43:20;97415.19;;;0.35;90.75
71105;BME280;58760;48.716;8.962;2023-01-31T04:45:45;97404.38;;;0.12;90.38
71105;BME280;58760;48.716;8.962;2023-01-31T04:48:11;97414.00;;;-0.05;91.01
71105;BME280;58760;48.716;8.962;2023-01-31T04:50:37;97418.63;;;-0.10;91.20
71105;BME280;58760;48.716;8.962;2023-01-31T04:53:02;97419.16;;;-0.19;91.68
71105;BME280;58760;48.716;8.962;2023-01-31T04:55:29;97421.91;;;-0.06;91.75
71105;BME280;58760;48.716;8.962;2023-01-31T04:57:54;97419.66;;;-0.28;91.85
71105;BME280;58760;48.716;8.962;2023-01-31T05:00:19;97412.88;;;-0.46;92.33
71105;BME280;58760;48.716;8.962;2023-01-31T05:02:45;97420.56;;;-0.60;92.74
71105;BME280;58760;48.716;8.962;2023-01-31T05:05:10;97401.56;;;-0.78;93.42
71105;BME280;58760;48.716;8.962;2023-01-31T05:07:38;97399.97;;;-0.80;93.91
71105;BME280;58760;48.716;8.962;2023-01-31T05:10:04;97404.81;;;-0.90;94.50
71105;BME280;58760;48.716;8.962;2023-01-31T05:12:30;97408.28;;;-0.89;94.70
71105;BME280;58760;48.716;8.962;2023-01-31T05:14:55;97415.63;;;-0.97;94.95
71105;BME280;58760;48.716;8.962;2023-01-31T05:17:21;97417.06;;;-1.08;95.16
71105;BME280;58760;48.716;8.962;2023-01-31T05:19:54;97413.00;;;-1.13;95.18
71105;BME280;58760;48.716;8.962;2023-01-31T05:22:19;97418.13;;;-1.12;95.59
71105;BME280;58760;48.716;8.962;2023-01-31T05:24:47;97421.91;;;-1.17;95.74
71105;BME280;58760;48.716;8.962;2023-01-31T05:27:13;97420.69;;;-1.27;95.92
71105;BME280;58760;48.716;8.962;2023-01-31T05:29:39;97422.78;;;-1.34;96.05
71105;BME280;58760;48.716;8.962;2023-01-31T05:32:04;97424.69;;;-1.37;96.34
71105;BME280;58760;48.716;8.962;2023-01-31T05:34:29;97423.16;;;-1.41;96.48
71105;BME280;58760;48.716;8.962;2023-01-31T05:36:57;97431.28;;;-1.47;96.61
71105;BME280;58760;48.716;8.962;2023-01-31T05:39:23;97436.16;;;-1.59;96.48
71105;BME280;58760;48.716;8.962;2023-01-31T05:41:48;97426.00;;;-1.63;96.46
71105;BME280;58760;48.716;8.962;2023-01-31T05:44:14;97426.97;;;-1.66;96.35
71105;BME280;58760;48.716;8.962;2023-01-31T05:46:40;97425.91;;;-1.44;97.04
71105;BME280;58760;48.716;8.962;2023-01-31T05:49:06;97427.28;;;-1.54;96.81
71105;BME280;58760;48.716;8.962;2023-01-31T05:51:31;97433.34;;;-1.54;96.95
71105;BME280;58760;48.716;8.962;2023-01-31T05:53:57;97420.72;;;-1.44;97.11
71105;BME280;58760;48.716;8.962;2023-01-31T05:56:22;97422.41;;;-1.43;97.16
71105;BME280;58760;48.716;8.962;2023-01-31T05:58:48;97424.44;;;-1.33;97.49
71105;BME280;58760;48.716;8.962;2023-01-31T06:01:19;97430.13;;;-1.42;97.40
71105;BME280;58760;48.716;8.962;2023-01-31T06:03:45;97422.88;;;-1.20;97.87
71105;BME280;58760;48.716;8.962;2023-01-31T06:06:11;97427.50;;;-1.25;97.75
71105;BME280;58760;48.716;8.962;2023-01-31T06:08:36;97427.19;;;-1.19;98.05
71105;BME280;58760;48.716;8.962;2023-01-31T06:11:02;97435.03;;;-0.70;97.91
71105;BME280;58760;48.716;8.962;2023-01-31T06:13:29;97435.56;;;-0.96;96.59
71105;BME280;58760;48.716;8.962;2023-01-31T06:15:55;97435.53;;;-0.79;96.44
71105;BME280;58760;48.716;8.962;2023-01-31T06:18:20;97440.59;;;-0.93;96.33
71105;BME280;58760;48.716;8.962;2023-01-31T06:20:45;97432.63;;;-0.90;96.57
71105;BME280;58760;48.716;8.962;2023-01-31T06:23:11;97434.03;;;-1.00;96.62
71105;BME280;58760;48.716;8.962;2023-01-31T06:25:36;97432.59;;;-1.06;96.70
71105;BME280;58760;48.716;8.962;2023-01-31T06:28:01;97433.44;;;-1.06;96.74
71105;BME280;58760;48.716;8.962;2023-01-31T06:30:27;97441.09;;;-1.02;96.63
71105;BME280;58760;48.716;8.962;2023-01-31T06:32:52;97442.47;;;-1.13;96.71
71105;BME280;58760;48.716;8.962;2023-01-31T06:35:18;97442.97;;;-0.89;96.46
71105;BME280;58760;48.716;8.962;2023-01-31T06:37:43;97438.25;;;-0.98;95.89
71105;BME280;58760;48.716;8.962;2023-01-31T06:40:09;97444.59;;;-1.03;96.03
71105;BME280;58760;48.716;8.962;2023-01-31T06:42:34;97449.66;;;-1.00;96.27
71105;BME280;58760;48.716;8.962;2023-01-31T06:45:00;97447.91;;;-1.00;96.36
71105;BME280;58760;48.716;8.962;2023-01-31T06:47:25;97449.97;;;-1.07;96.44
71105;BME280;58760;48.716;8.962;2023-01-31T06:49:51;97450.59;;;-1.01;96.28
71105;BME280;58760;48.716;8.962;2023-01-31T06:52:16;97454.56;;;-0.94;96.27
71105;BME280;58760;48.716;8.962;2023-01-31T06:54:41;97455.97;;;-1.04;96.14
71105;BME280;58760;48.716;8.962;2023-01-31T06:57:07;97469.56;;;-0.99;96.15
71105;BME280;58760;48.716;8.962;2023-01-31T06:59:32;97455.34;;;-0.77;96.00
71105;BME280;58760;48.716;8.962;2023-01-31T07:01:57;97455.63;;;-0.98;95.01
71105;BME280;58760;48.716;8.962;2023-01-31T07:04:23;97450.59;;;-1.01;95.30
71105;BME280;58760;48.716;8.962;2023-01-31T07:06:48;97439.84;;;-0.95;95.74
71105;BME280;58760;48.716;8.962;2023-01-31T07:09:13;97445.97;;;-0.96;95.47
71105;BME280;58760;48.716;8.962;2023-01-31T07:11:39;97439.34;;;-1.02;95.77
71105;BME280;58760;48.716;8.962;2023-01-31T07:14:04;97438.41;;;-1.01;95.67
71105;BME280;58760;48.716;8.962;2023-01-31T07:16:30;97445.38;;;-1.01;95.80
71105;BME280;58760;48.716;8.962;2023-01-31T07:18:55;97448.19;;;-0.89;95.66
71105;BME280;58760;48.716;8.962;2023-01-31T07:21:22;97448.75;;;-0.99;95.09
71105;BME280;58760;48.716;8.962;2023-01-31T07:23:48;97442.84;;;-1.03;95.39
71105;BME280;58760;48.716;8.962;2023-01-31T07:26:13;97446.28;;;-1.02;95.60
71105;BME280;58760;48.716;8.962;2023-01-31T07:28:39;97460.72;;;-1.13;95.29
71105;BME280;58760;48.716;8.962;2023-01-31T07:31:10;97453.97;;;-1.17;95.37
71105;BME280;58760;48.716;8.962;2023-01-31T07:33:37;97464.09;;;-1.11;95.75
71105;BME280;58760;48.716;8.962;2023-01-31T07:36:04;97465.59;;;-1.07;95.76
71105;BME280;58760;48.716;8.962;2023-01-31T07:38:31;97464.84;;;-1.09;94.85
71105;BME280;58760;48.716;8.962;2023-01-31T07:41:03;97466.53;;;-1.08;94.72
71105;BME280;58760;48.716;8.962;2023-01-31T07:43:29;97455.03;;;-1.03;94.94
71105;BME280;58760;48.716;8.962;2023-01-31T07:45:55;97461.16;;;-1.04;94.78
71105;BME280;58760;48.716;8.962;2023-01-31T07:48:20;97461.84;;;-1.01;95.06
71105;BME280;58760;48.716;8.962;2023-01-31T07:50:50;97452.69;;;-1.08;94.74
71105;BME280;58760;48.716;8.962;2023-01-31T07:53:16;97457.00;;;-0.91;95.13
71105;BME280;58760;48.716;8.962;2023-01-31T07:55:41;97452.97;;;-0.81;95.37
71105;BME280;58760;48.716;8.962;2023-01-31T07:58:12;97462.34;;;-0.62;95.13
71105;BME280;58760;48.716;8.962;2023-01-31T08:00:37;97460.63;;;-0.30;94.94
71105;BME280;58760;48.716;8.962;2023-01-31T08:03:26;97470.72;;;-0.08;93.87
71105;BME280;58760;48.716;8.962;2023-01-31T08:06:11;97464.97;;;0.17;92.51
71105;BME280;58760;48.716;8.962;2023-01-31T08:08:37;97472.63;;;0.20;91.60
71105;BME280;58760;48.716;8.962;2023-01-31T08:11:03;97467.13;;;0.40;91.11
71105;BME280;58760;48.716;8.962;2023-01-31T08:13:32;97468.63;;;0.44;90.68
71105;BME280;58760;48.716;8.962;2023-01-31T08:16:00;97472.44;;;0.68;90.01
71105;BME280;58760;48.716;8.962;2023-01-31T08:18:25;97466.69;;;0.77;89.24
71105;BME280;58760;48.716;8.962;2023-01-31T08:20:51;97474.72;;;0.88;88.85
71105;BME280;58760;48.716;8.962;2023-01-31T08:23:16;97477.72;;;0.96;88.95
71105;BME280;58760;48.716;8.962;2023-01-31T08:25:41;97464.69;;;1.39;87.98
71105;BME280;58760;48.716;8.962;2023-01-31T08:28:07;97454.41;;;1.64;86.57
71105;BME280;58760;48.716;8.962;2023-01-31T08:30:33;97454.00;;;1.70;84.64
71105;BME280;58760;48.716;8.962;2023-01-31T08:32:58;97453.00;;;1.99;84.48
71105;BME280;58760;48.716;8.962;2023-01-31T08:35:25;97454.59;;;2.02;83.77
71105;BME280;58760;48.716;8.962;2023-01-31T08:37:51;97454.38;;;2.05;83.69
71105;BME280;58760;48.716;8.962;2023-01-31T08:40:17;97459.16;;;2.13;84.95
71105;BME280;58760;48.716;8.962;2023-01-31T08:42:42;97450.44;;;2.39;85.89
71105;BME280;58760;48.716;8.962;2023-01-31T08:45:08;97445.69;;;2.31;84.06
71105;BME280;58760;48.716;8.962;2023-01-31T08:47:34;97440.84;;;2.52;82.99
71105;BME280;58760;48.716;8.962;2023-01-31T08:50:00;97428.78;;;2.37;82.72
71105;BME280;58760;48.716;8.962;2023-01-31T08:52:26;97431.06;;;2.41;82.97
71105;BME280;58760;48.716;8.962;2023-01-31T08:54:51;97421.38;;;2.56;83.16
71105;BME280;58760;48.716;8.962;2023-01-31T08:57:17;97426.69;;;2.54;82.69
71105;BME280;58760;48.716;8.962;2023-01-31T08:59:42;97413.31;;;2.59;83.01
71105;BME280;58760;48.716;8.962;2023-01-31T09:02:10;97428.28;;;2.57;83.20
71105;BME280;58760;48.716;8.962;2023-01-31T09:04:35;97430.09;;;2.56;83.76
71105;BME280;58760;48.716;8.962;2023-01-31T09:07:01;97437.91;;;2.44;83.94
71105;BME280;58760;48.716;8.962;2023-01-31T09:09:26;97433.41;;;2.46;83.19
71105;BME280;58760;48.716;8.962;2023-01-31T09:11:51;97442.97;;;2.59;82.52
71105;BME280;58760;48.716;8.962;2023-01-31T09:14:17;97435.22;;;2.71;80.40
71105;BME280;58760;48.716;8.962;2023-01-31T09:16:42;97434.81;;;2.77;79.69
71105;BME280;58760;48.716;8.962;2023-01-31T09:19:10;97430.34;;;2.91;77.23
71105;BME280;58760;48.716;8.962;2023-01-31T09:21:35;97430.41;;;2.90;77.43
71105;BME280;58760;48.716;8.962;2023-01-31T09:24:01;97427.41;;;3.08;77.36
71105;BME280;58760;48.716;8.962;2023-01-31T09:26:28;97427.06;;;3.13;79.75
71105;BME280;58760;48.716;8.962;2023-01-31T09:28:53;97428.13;;;3.10;80.26
71105;BME280;58760;48.716;8.962;2023-01-31T09:31:20;97423.09;;;3.07;80.96
71105;BME280;58760;48.716;8.962;2023-01-31T09:33:46;97418.38;;;3.25;80.30
71105;BME280;58760;48.716;8.962;2023-01-31T09:36:16;97422.16;;;3.08;80.20
71105;BME280;58760;48.716;8.962;2023-01-31T09:38:42;97423.41;;;3.15;80.19
71105;BME280;58760;48.716;8.962;2023-01-31T09:41:37;97414.59;;;3.04;79.72
71105;BME280;58760;48.716;8.962;2023-01-31T09:44:12;97414.59;;;3.04;79.65
71105;BME280;58760;48.716;8.962;2023-01-31T09:46:42;97422.16;;;3.21;79.05
71105;BME280;58760;48.716;8.962;2023-01-31T09:49:15;97418.28;;;3.14;77.24
71105;BME280;58760;48.716;8.962;2023-01-31T09:51:42;97415.31;;;3.06;77.66
71105;BME280;58760;48.716;8.962;2023-01-31T09:54:17;97405.69;;;3.06;78.15
71105;BME280;58760;48.716;8.962;2023-01-31T10:00:04;97408.94;;;3.10;77.86
71105;BME280;58760;48.716;8.962;2023-01-31T10:02:52;97419.53;;;3.08;76.55
71105;BME280;58760;48.716;8.962;2023-01-31T10:05:48;97421.31;;;3.08;76.78
71105;BME280;58760;48.716;8.962;2023-01-31T10:10:59;97428.03;;;3.12;76.77
71105;BME280;58760;48.716;8.962;2023-01-31T10:13:36;97434.00;;;3.27;76.13
71105;BME280;58760;48.716;8.962;2023-01-31T10:18:43;97430.44;;;3.28;75.18
71105;BME280;58760;48.716;8.962;2023-01-31T10:21:16;97423.09;;;3.33;75.83
71105;BME280;58760;48.716;8.962;2023-01-31T10:26:21;97431.28;;;3.41;75.59
71105;BME280;58760;48.716;8.962;2023-01-31T10:28:54;97422.66;;;3.39;75.33
71105;BME280;58760;48.716;8.962;2023-01-31T10:34:35;97425.41;;;3.86;74.94
71105;BME280;58760;48.716;8.962;2023-01-31T10:37:10;97419.72;;;3.92;73.68
71105;BME280;58760;48.716;8.962;2023-01-31T10:39:46;97422.91;;;4.08;74.03
71105;BME280;58760;48.716;8.962;2023-01-31T10:42:20;97415.94;;;3.96;73.67
71105;BME280;58760;48.716;8.962;2023-01-31T10:45:16;97417.13;;;4.03;73.47
71105;BME280;58760;48.716;8.962;2023-01-31T10:47:52;97414.09;;;4.09;73.62
71105;BME280;58760;48.716;8.962;2023-01-31T10:50:44;97415.19;;;4.18;72.13
71105;BME280;58760;48.716;8.962;2023-01-31T10:58:21;97406.56;;;4.63;72.30
71105;BME280;58760;48.716;8.962;2023-01-31T11:00:47;97411.25;;;4.71;72.06
71105;BME280;58760;48.716;8.962;2023-01-31T11:03:13;97400.13;;;4.67;71.55
71105;BME280;58760;48.716;8.962;2023-01-31T11:05:54;97396.66;;;4.67;71.03
71105;BME280;58760;48.716;8.962;2023-01-31T11:08:28;97393.19;;;4.66;71.25
71105;BME280;58760;48.716;8.962;2023-01-31T11:10:57;97397.34;;;4.69;71.84
71105;BME280;58760;48.716;8.962;2023-01-31T11:13:23;97387.59;;;4.71;71.22
71105;BME280;58760;48.716;8.962;2023-01-31T11:15:51;97386.75;;;4.70;72.34
71105;BME280;58760;48.716;8.962;2023-01-31T11:18:42;97405.22;;;4.58;72.33
71105;BME280;58760;48.716;8.962;2023-01-31T11:21:09;97395.47;;;4.82;72.06
71105;BME280;58760;48.716;8.962;2023-01-31T11:23:35;97393.94;;;4.80;71.34
71105;BME280;58760;48.716;8.962;2023-01-31T11:26:01;97377.34;;;4.90;71.06
71105;BME280;58760;48.716;8.962;2023-01-31T11:28:35;97366.03;;;5.23;69.85
71105;BME280;58760;48.716;8.962;2023-01-31T11:31:03;97358.25;;;5.33;67.07
71105;BME280;58760;48.716;8.962;2023-01-31T11:33:37;97350.19;;;5.56;65.91
71105;BME280;58760;48.716;8.962;2023-01-31T11:36:16;97350.03;;;5.80;65.58
71105;BME280;58760;48.716;8.962;2023-01-31T11:38:41;97333.28;;;5.70;65.38
71105;BME280;58760;48.716;8.962;2023-01-31T11:44:17;97324.91;;;5.76;65.40
71105;BME280;58760;48.716;8.962;2023-01-31T11:47:10;97302.00;;;5.34;66.06
71105;BME280;58760;48.716;8.962;2023-01-31T11:49:41;97310.03;;;5.21;66.14
71105;BME280;58760;48.716;8.962;2023-01-31T11:52:17;97302.16;;;4.99;66.02
71105;BME280;58760;48.716;8.962;2023-01-31T11:54:47;97312.91;;;4.73;66.90
71105;BME280;58760;48.716;8.962;2023-01-31T11:57:15;97310.84;;;4.66;67.57
71105;BME280;58760;48.716;8.962;2023-01-31T11:59:41;97331.88;;;4.55;67.76
71105;BME280;58760;48.716;8.962;2023-01-31T12:02:26;97331.59;;;4.47;66.71
71105;BME280;58760;48.716;8.962;2023-01-31T12:04:54;97341.13;;;4.37;67.34
71105;BME280;58760;48.716;8.962;2023-01-31T12:07:23;97334.94;;;4.49;67.90
71105;BME280;58760;48.716;8.962;2023-01-31T12:09:49;97334.56;;;4.42;68.08
71105;BME280;58760;48.716;8.962;2023-01-31T12:12:29;97334.53;;;4.31;67.95
71105;BME280;58760;48.716;8.962;2023-01-31T12:15:05;97336.56;;;4.28;68.41
71105;BME280;58760;48.716;8.962;2023-01-31T12:17:43;97334.56;;;4.07;68.10
71105;BME280;58760;48.716;8.962;2023-01-31T12:23:16;97339.09;;;4.05;69.39
71105;BME280;58760;48.716;8.962;2023-01-31T12:28:27;97310.94;;;3.84;69.89
71105;BME280;58760;48.716;8.962;2023-01-31T12:41:40;97279.09;;;3.77;72.22
71105;BME280;58760;48.716;8.962;2023-01-31T12:47:16;97283.97;;;3.58;72.73
71105;BME280;58760;48.716;8.962;2023-01-31T12:49:59;97282.03;;;3.49;73.25
71105;BME280;58760;48.716;8.962;2023-01-31T13:01:30;97276.56;;;3.52;73.00
71105;BME280;58760;48.716;8.962;2023-01-31T13:06:38;97251.94;;;3.65;72.73
71105;BME280;58760;48.716;8.962;2023-01-31T13:11:47;97256.69;;;3.60;72.51
71105;BME280;58760;48.716;8.962;2023-01-31T13:14:20;97245.13;;;3.63;71.91
71105;BME280;58760;48.716;8.962;2023-01-31T13:16:51;97250.53;;;3.49;72.29
71105;BME280;58760;48.716;8.962;2023-01-31T13:19:32;97255.69;;;3.50;72.65
71105;BME280;58760;48.716;8.962;2023-01-31T13:22:04;97244.44;;;3.48;72.38
71105;BME280;58760;48.716;8.962;2023-01-31T13:24:36;97249.59;;;3.50;72.54
71105;BME280;58760;48.716;8.962;2023-01-31T13:27:10;97244.59;;;3.47;72.82
71105;BME280;58760;48.716;8.962;2023-01-31T13:29:54;97236.81;;;3.45;72.81
71105;BME280;58760;48.716;8.962;2023-01-31T13:32:27;97232.19;;;3.49;72.68
71105;BME280;58760;48.716;8.962;2023-01-31T13:37:29;97235.78;;;3.48;73.20
71105;BME280;58760;48.716;8.962;2023-01-31T13:40:02;97224.75;;;3.43;73.30
71105;BME280;58760;48.716;8.962;2023-01-31T13:42:28;97225.94;;;3.39;73.43
71105;BME280;58760;48.716;8.962;2023-01-31T13:44:55;97218.41;;;3.34;73.47
71105;BME280;58760;48.716;8.962;2023-01-31T13:47:30;97225.59;;;3.43;73.28
71105;BME280;58760;48.716;8.962;2023-01-31T13:53:13;97242.22;;;3.55;73.03
71105;BME280;58760;48.716;8.962;2023-01-31T13:55:44;97222.47;;;3.62;73.48
71105;BME280;58760;48.716;8.962;2023-01-31T13:58:23;97222.06;;;3.55;72.87
71105;BME280;58760;48.716;8.962;2023-01-31T14:01:02;97229.31;;;3.52;72.79
71105;BME280;58760;48.716;8.962;2023-01-31T14:03:29;97230.28;;;3.51;72.97
71105;BME280;58760;48.716;8.962;2023-01-31T14:05:59;97222.25;;;3.41;73.51
71105;BME280;58760;48.716;8.962;2023-01-31T14:10:55;97230.94;;;3.42;73.50
71105;BME280;58760;48.716;8.962;2023-01-31T14:15:56;97225.09;;;3.38;73.16
71105;BME280;58760;48.716;8.962;2023-01-31T14:18:51;97209.19;;;3.52;73.21
71105;BME280;58760;48.716;8.962;2023-01-31T14:23:58;97192.59;;;3.52;73.14
71105;BME280;58760;48.716;8.962;2023-01-31T14:29:08;97176.91;;;3.63;73.75
71105;BME280;58760;48.716;8.962;2023-01-31T14:31:34;97184.94;;;3.73;73.89
71105;BME280;58760;48.716;8.962;2023-01-31T14:34:01;97192.34;;;3.79;73.24
71105;BME280;58760;48.716;8.962;2023-01-31T14:39:48;97189.56;;;4.15;73.12
71105;BME280;58760;48.716;8.962;2023-01-31T14:42:32;97188.13;;;4.33;71.94
71105;BME280;58760;48.716;8.962;2023-01-31T14:45:30;97179.28;;;4.23;72.38
71105;BME280;58760;48.716;8.962;2023-01-31T14:56:32;97168.47;;;3.82;73.94
71105;BME280;58760;48.716;8.962;2023-01-31T14:59:02;97174.28;;;3.63;74.00
71105;BME280;58760;48.716;8.962;2023-01-31T15:01:35;97193.59;;;3.62;73.96
71105;BME280;58760;48.716;8.962;2023-01-31T15:04:03;97187.09;;;3.44;74.71
71105;BME280;58760;48.716;8.962;2023-01-31T15:06:31;97189.19;;;3.39;74.74
71105;BME280;58760;48.716;8.962;2023-01-31T15:11:56;97173.47;;;3.39;74.93
71105;BME280;58760;48.716;8.962;2023-01-31T15:16:58;97180.47;;;3.62;73.15
71105;BME280;58760;48.716;8.962;2023-01-31T15:19:25;97190.13;;;3.61;73.80
71105;BME280;58760;48.716;8.962;2023-01-31T15:21:54;97197.22;;;3.72;73.24
71105;BME280;58760;48.716;8.962;2023-01-31T15:24:26;97201.09;;;3.55;74.41